Austin, Texas
Traffic Map
Current Weather Conditions
Austin, Texas
Clear
Clear
34°
Feels Like: 34°
Wind Chill: 34° Ceiling: Unl
Heat Index: 34° Visibility: 10mi
Dew Point: 17° Wind: 8mph
Humidity: 37% Direction: 140° (SE)
Pressure: 30in Gusts: 0mph
Raw Report DataKATT 301951Z AUTO 14007KT 10SM CLR 34/17 A3000 RMK AO2 SLP144 T03390172
Traffic Incident Summary
Active as of:
Severity:
Category:
InformationThere was an issue retrieving the traffic information for this location. Please try a different location or try again shortly.
Advertisements
Track Severe Weather on mobile